Main page
METAR-TAF:

METAR-TAF

Airports :

Morristown Municipal Airport

Morristown, New Jersey, United States

latitude: 40-48N, longitude: 074-25W, elevation: 187 ft

Current weather observation

The report was made 29 minutes ago, at 03:15 UTC
Calm wind
Temperature 43°F
Humidity 61%
Pressure 29.95 in. Hg
Visibility: 10 miles
Overcast at a height of 11000 ft

METAR: KMMU 250315Z AUTO 00000KT 10SM OVC110 06/M01 A2995 RMK AO2

Time: 22:44 (03:44 UTC)


TAF: missing

Weather observations and forecasts of more than 4000 airports (METAR and TAF reports).

The available stations are represented by yellow and red dots on the map.

Hover mouse over dot to see the name of the station.

Then click to see weather observations and forecasts.

To change the map : click on the green buttons with a black cross to zoom in, on the green button with a dash to zoom out, or on the green arrows for adjacent maps.


METAR-TAF: